Glacier National Park, MT

11:35 AM MDT on August 27, 2014 (GMT -0600)
Cut Bank Municipal | Change Station
CLOSE
Current Station
Airport
Location: Cut Bank,
Elevation: 3855 ft
Nearby Weather Stations

Elev 3855 ft 48.61 °N, 112.38 °W | Updated 39 minutes ago

Clear
Clear
78 °F
Feels Like 78 °F
N
9
Wind Variable Wind from West

Today
High -- | Low -- °F
--% Chance of Precip.
Yesterday
High -- | Low -- °F
Precip. -- in
6:44 AM 8:25 PM
Waxing Crescent, 4% visible
Pressure 29.96 in
Visibility 10.0 miles
Clouds Clear
Dew Point 47 °F
Humidity 33%
Rainfall 0.00 in
Snow Depth Not available.
UV 5 out of 12
Pollen 3.80 out of 12
Air Quality Not available.
Flu Activity Not available.
METAR KCTB 271656Z AUTO 27008KT 10SM CLR 26/08 A3005 RMK AO2 SLP144 T02560083

More Conditions Fewer Conditions

Pressure 29.96 in
Visibility 10.0 miles
Clouds Clear
Dew Point 47 °F
Humidity 33%
Rainfall 0.00 in
Snow Depth Not available.
UV 5 out of 12
Pollen 3.80 out of 12
Air Quality Not available.
Flu Activity Not available.
METAR KCTB 271656Z AUTO 27008KT 10SM CLR 26/08 A3005 RMK AO2 SLP144 T02560083

More Conditions Fewer Conditions

10-Day Weather Forecast

Almanac

Astronomy

Aug. 27, 2014 Rise Set
Actual Time 6:44 AM MDT 8:25 PM MDT
Civil Twilight 6:10 AM MDT 8:59 PM MDT
Nautical Twilight 5:30 AM MDT 9:39 PM MDT
Astronomical Twilight 4:45 AM MDT 10:23 PM MDT
Moon 8:57 AM MDT 9:04 PM MDT
Length of Visible Light 14h 48m
Length of Day
13h 41m
Tomorrow will be 3m 24s shorter.
Waxing Crescent, 4% of the Moon is Illuminated
Today
Waxing Crescent
Sep 2
First Quarter
Sep 8
Full
Sep 15
Last Quarter
Sep 24
New

Today's Extremes

State Highs State Lows

Community

WunderPhotos

Upload Photos

1,747,733 photos uploaded!

Nearby

Snow Depth

Station Depth Elevation
Emery Creek 0 in 4350 ft
Dupuyer Creek 0 in 5750 ft
Mount Lockhart 0 in 6400 ft
Stahl Peak 0 in 6030 ft
Waldron 1 in 5600 ft

Earthquake Activity

City Distance Mag. Time & Date
No recent earthquake activity has been reported nearby.
Minimum magnitude displayed is 2.5.

Coastal Water Temperatures

Place Temperature
No Stations Reporting

Nearby Weather Stations